Time;durP1;ratioP1;P1;durP2;ratioP2;P2;SDS_P1;SDS_P2;PMS_P1;PMS_P2;Temp;Humidity;BMP_temperature;BMP_pressure;BME280_temperature;BME280_humidity;BME280_pressure;Samples;Min_cycle;Max_cycle;Signal;HPM_P1;HPM_P2
2021/06/12 00:02:07;;;;;;;8.35;4.40;;;;;;;20.53;60.30;101782.72;5052280;28;20044;-51
2021/06/12 00:04:34;;;;;;;7.60;4.72;;;;;;;20.53;60.44;101779.94;5052126;28;20087;-48
2021/06/12 00:07:02;;;;;;;9.10;4.13;;;;;;;20.48;60.26;101782.84;5052802;28;20049;-51
2021/06/12 00:09:30;;;;;;;9.38;4.38;;;;;;;20.40;60.73;101785.22;5052437;28;20048;-52
2021/06/12 00:11:58;;;;;;;8.85;4.63;;;;;;;20.39;60.71;101780.78;5052705;28;20065;-50
2021/06/12 00:14:25;;;;;;;7.47;4.05;;;;;;;20.37;60.77;101780.31;5052460;28;20052;-50
2021/06/12 00:16:53;;;;;;;9.25;3.97;;;;;;;20.39;60.56;101780.78;5052744;28;20497;-53
2021/06/12 00:19:21;;;;;;;12.20;4.38;;;;;;;20.40;60.38;101776.91;5056869;28;20131;-50
2021/06/12 00:21:48;;;;;;;11.68;4.95;;;;;;;20.39;60.55;101783.56;5072441;28;20439;-52
2021/06/12 00:24:16;;;;;;;8.20;4.55;;;;;;;20.36;60.78;101791.69;5072210;28;20059;-49
2021/06/12 00:26:44;;;;;;;8.38;3.90;;;;;;;20.25;60.72;101788.31;5072706;28;20051;-51
2021/06/12 00:29:11;;;;;;;10.32;4.13;;;;;;;20.16;60.89;101776.34;5072597;28;20098;-56
2021/06/12 00:31:39;;;;;;;8.43;4.38;;;;;;;20.15;61.16;101769.16;5072354;28;20048;-50
2021/06/12 00:34:07;;;;;;;8.88;4.10;;;;;;;20.16;60.96;101779.94;5051461;28;20041;-52
2021/06/12 00:36:34;;;;;;;7.88;4.20;;;;;;;20.13;61.10;101776.94;5068445;28;20494;-49
2021/06/12 00:39:04;;;;;;;6.18;3.90;;;;;;;20.09;61.03;101781.50;5072878;28;20083;-52
2021/06/12 00:41:31;;;;;;;7.82;3.80;;;;;;;20.07;60.97;101779.03;5072507;28;20098;-48
2021/06/12 00:43:59;;;;;;;9.13;3.90;;;;;;;20.09;61.02;101773.19;5072850;28;20069;-52
2021/06/12 00:46:26;;;;;;;8.02;4.03;;;;;;;20.08;60.88;101763.22;5072535;28;20041;-49
2021/06/12 00:48:54;;;;;;;6.22;3.63;;;;;;;20.07;61.02;101767.94;5071570;28;20047;-51
2021/06/12 00:51:22;;;;;;;6.55;3.55;;;;;;;20.09;60.93;101767.66;5071874;28;20446;-51
2021/06/12 00:53:51;;;;;;;8.95;4.00;;;;;;;20.10;60.80;101766.50;5072017;28;20421;-48
2021/06/12 00:56:20;;;;;;;7.38;3.70;;;;;;;20.13;60.63;101760.34;5072089;28;20109;-51
2021/06/12 00:58:50;;;;;;;5.85;2.78;;;;;;;20.10;61.00;101759.03;5072579;28;20438;-52
2021/06/12 01:01:20;;;;;;;7.20;3.65;;;;;;;20.12;60.87;101758.72;5051278;28;20045;-50
2021/06/12 01:03:48;;;;;;;6.95;3.83;;;;;;;20.14;60.71;101756.47;5064703;28;20067;-50
2021/06/12 01:06:20;;;;;;;7.10;3.60;;;;;;;20.14;60.64;101757.28;5071976;28;20464;-53
2021/06/12 01:08:48;;;;;;;8.27;3.95;;;;;;;20.13;60.74;101749.28;5071461;28;20576;-54
2021/06/12 01:11:16;;;;;;;6.30;3.40;;;;;;;20.10;61.01;101744.38;5071290;28;20040;-53
2021/06/12 01:13:56;;;;;;;7.00;3.67;;;;;;;20.10;60.84;101744.38;5075391;28;20101;-53
2021/06/12 01:16:42;;;;;;;7.75;3.60;;;;;;;20.10;60.70;101745.19;5074989;28;20115;-47
2021/06/12 01:19:24;;;;;;;10.35;3.47;;;;;;;20.11;60.61;101743.25;5062799;28;20090;-52
2021/06/12 01:21:53;;;;;;;8.02;3.65;;;;;;;20.09;60.85;101746.34;5074657;28;20083;-55
2021/06/12 01:25:00;;;;;;;8.30;3.33;;;;;;;20.05;60.90;101747.25;5074708;28;20093;-54
2021/06/12 01:27:46;;;;;;;6.90;3.60;;;;;;;20.02;60.93;101750.66;5074175;28;20072;-52
2021/06/12 01:30:22;;;;;;;8.50;3.90;;;;;;;20.00;60.94;101756.47;5075099;28;20102;-50
2021/06/12 01:32:55;;;;;;;7.50;3.88;;;;;;;19.99;61.04;101755.66;5075180;28;20457;-52
2021/06/12 01:35:35;;;;;;;5.25;3.30;;;;;;;20.03;61.02;101749.50;5081707;28;20041;-51
2021/06/12 01:38:05;;;;;;;7.60;3.95;;;;;;;20.05;60.95;101753.59;5081188;28;20048;-52
2021/06/12 01:40:37;;;;;;;6.95;3.72;;;;;;;20.07;61.16;101756.06;5078680;28;20040;-52
2021/06/12 01:43:08;;;;;;;9.52;3.63;;;;;;;20.07;60.79;101745.81;5073682;28;20036;-49
2021/06/12 01:45:37;;;;;;;7.15;3.58;;;;;;;20.04;60.87;101740.09;5073529;28;20465;-50
2021/06/12 01:48:05;;;;;;;9.68;4.20;;;;;;;19.96;61.12;101756.28;5072717;28;20420;-51
2021/06/12 01:50:33;;;;;;;8.02;4.00;;;;;;;19.88;61.49;101762.53;5073418;28;20044;-49
2021/06/12 01:53:01;;;;;;;10.20;3.97;;;;;;;19.82;61.71;101763.78;5074854;28;20083;-50
2021/06/12 01:55:30;;;;;;;9.80;3.60;;;;;;;19.78;62.00;101759.97;5074549;28;20376;-49
2021/06/12 01:58:03;;;;;;;7.85;3.58;;;;;;;19.79;61.85;101758.84;5073556;28;20048;-47
2021/06/12 02:00:31;;;;;;;8.48;3.95;;;;;;;19.81;62.07;101759.34;5074645;28;20047;-51
2021/06/12 02:02:59;;;;;;;6.38;3.38;;;;;;;19.80;62.02;101754.97;5074043;28;20564;-53
2021/06/12 02:05:26;;;;;;;9.52;3.78;;;;;;;19.81;61.98;101759.34;5073333;28;20036;-50
2021/06/12 02:07:55;;;;;;;7.10;3.80;;;;;;;19.79;62.06;101762.44;5073193;28;20396;-53
2021/06/12 02:10:26;;;;;;;8.95;4.38;;;;;;;19.77;62.05;101752.78;5074608;28;20048;-48
2021/06/12 02:12:55;;;;;;;6.70;3.83;;;;;;;19.78;62.05;101759.97;5073119;28;20040;-52
2021/06/12 02:15:24;;;;;;;6.97;3.65;;;;;;;19.78;62.08;101754.44;5072617;28;20446;-50
2021/06/12 02:17:53;;;;;;;10.43;3.85;;;;;;;19.76;62.07;101748.41;5066881;28;20071;-50
2021/06/12 02:20:22;;;;;;;7.63;3.30;;;;;;;19.75;62.16;101750.34;5065649;28;20060;-49
2021/06/12 02:22:51;;;;;;;7.03;3.60;;;;;;;19.74;62.09;101750.66;5072364;28;20494;-51
2021/06/12 02:25:19;;;;;;;7.30;4.00;;;;;;;19.72;62.19;101750.97;5074151;28;20515;-52
2021/06/12 02:27:54;;;;;;;8.60;4.15;;;;;;;19.72;62.41;101750.13;5060023;28;20041;-50
2021/06/12 02:30:27;;;;;;;8.95;3.88;;;;;;;19.67;62.44;101752.97;5073861;28;20048;-51
2021/06/12 02:33:05;;;;;;;8.13;3.63;;;;;;;19.62;62.71;101751.13;5073076;28;20067;-50
2021/06/12 02:35:33;;;;;;;6.88;3.42;;;;;;;19.61;62.62;101755.03;5073047;28;20090;-51
2021/06/12 02:38:01;;;;;;;8.52;3.60;;;;;;;19.60;62.76;101769.97;5073990;28;20487;-51
2021/06/12 02:40:29;;;;;;;6.80;3.65;;;;;;;19.59;63.07;101760.03;5074033;28;20110;-49
2021/06/12 02:42:56;;;;;;;7.55;3.40;;;;;;;19.57;63.15;101763.09;5071108;28;20488;-51
2021/06/12 02:45:25;;;;;;;6.50;3.38;;;;;;;19.57;63.00;101760.34;5062540;28;20098;-51
2021/06/12 02:47:58;;;;;;;7.13;3.70;;;;;;;19.59;62.99;101751.75;5071080;28;20041;-52
2021/06/12 02:50:28;;;;;;;8.18;3.70;;;;;;;19.59;63.09;101752.56;5061082;28;20495;-49
2021/06/12 02:53:01;;;;;;;7.28;3.47;;;;;;;19.61;62.74;101760.56;5071872;28;20078;-53
2021/06/12 02:55:30;;;;;;;8.30;3.90;;;;;;;19.61;63.06;101754.22;5073675;28;20080;-52
2021/06/12 02:57:58;;;;;;;7.53;3.67;;;;;;;19.62;63.15;101747.56;5071869;28;20044;-52
2021/06/12 03:00:26;;;;;;;6.45;3.65;;;;;;;19.63;63.14;101740.91;5072053;28;20040;-52
2021/06/12 03:02:54;;;;;;;10.75;3.72;;;;;;;19.62;63.14;101747.56;5072050;28;20072;-51
2021/06/12 03:05:25;;;;;;;7.68;3.85;;;;;;;19.60;63.39;101750.63;5071875;28;20163;-50
2021/06/12 03:07:58;;;;;;;10.07;4.43;;;;;;;19.57;63.47;101748.47;5073458;28;20044;-49
2021/06/12 03:10:28;;;;;;;7.45;4.07;;;;;;;19.52;63.82;101752.16;5072069;28;20044;-48
2021/06/12 03:12:56;;;;;;;9.50;4.07;;;;;;;19.49;63.66;101758.31;5071858;28;20052;-53
2021/06/12 03:15:25;;;;;;;10.05;3.78;;;;;;;19.47;64.05;101765.25;5072964;28;20384;-49
2021/06/12 03:17:52;;;;;;;9.48;3.95;;;;;;;19.50;63.95;101746.09;5073509;28;20049;-52
2021/06/12 03:20:21;;;;;;;9.45;4.10;;;;;;;19.49;63.95;101750.00;5071503;28;20052;-50
2021/06/12 03:22:52;;;;;;;7.90;4.30;;;;;;;19.45;64.37;101757.25;5055035;28;20036;-50
2021/06/12 03:25:22;;;;;;;9.90;4.65;;;;;;;19.43;64.33;101753.97;5071804;28;20097;-51
2021/06/12 03:27:50;;;;;;;10.10;3.95;;;;;;;19.43;64.28;101762.28;5072832;28;20123;-51
2021/06/12 03:30:19;;;;;;;10.40;5.20;;;;;;;19.41;64.61;101760.94;5072601;28;20388;-51
2021/06/12 03:32:47;;;;;;;10.77;4.47;;;;;;;19.43;64.56;101753.16;5073383;28;20052;-50
2021/06/12 03:35:15;;;;;;;11.45;4.70;;;;;;;19.40;64.74;101757.38;5071379;28;20043;-48
2021/06/12 03:37:43;;;;;;;10.25;4.30;;;;;;;19.39;64.52;101754.91;5071954;28;20084;-53
2021/06/12 03:40:11;;;;;;;7.40;4.32;;;;;;;19.40;64.68;101751.03;5071526;28;20451;-50
2021/06/12 03:42:39;;;;;;;6.88;3.92;;;;;;;19.41;64.73;101738.81;5072102;28;20045;-52
2021/06/12 03:45:10;;;;;;;9.55;4.47;;;;;;;19.41;64.49;101739.66;5071665;28;20074;-48
2021/06/12 03:47:39;;;;;;;6.47;3.88;;;;;;;19.41;64.73;101742.44;5071846;28;20049;-54
2021/06/12 03:50:09;;;;;;;8.13;3.72;;;;;;;19.47;64.39;101743.16;5071444;28;20109;-50
2021/06/12 03:52:37;;;;;;;8.40;4.30;;;;;;;19.45;64.29;101739.88;5071361;28;20458;-50
2021/06/12 03:55:06;;;;;;;5.18;3.08;;;;;;;19.47;64.13;101743.97;5073085;28;20040;-49
2021/06/12 03:57:36;;;;;;;9.45;4.10;;;;;;;19.44;64.22;101758.41;5072662;28;20048;-49
2021/06/12 04:00:07;;;;;;;7.10;3.70;;;;;;;19.42;64.18;101746.81;5072375;28;20498;-50
2021/06/12 04:02:41;;;;;;;6.88;3.55;;;;;;;19.44;64.12;101758.41;5072989;28;20128;-51
2021/06/12 04:05:10;;;;;;;6.47;3.60;;;;;;;19.44;64.23;101763.94;5072857;28;20499;-49
2021/06/12 04:07:38;;;;;;;7.80;4.25;;;;;;;19.43;64.13;101767.81;5073136;28;20098;-51
2021/06/12 04:10:08;;;;;;;5.63;3.75;;;;;;;19.40;64.21;101776.72;5072918;28;20052;-53
2021/06/12 04:12:35;;;;;;;9.32;4.70;;;;;;;19.35;64.38;101779.56;5072551;28;20076;-50
2021/06/12 04:15:05;;;;;;;9.52;4.65;;;;;;;19.33;64.65;101777.09;5072273;28;20044;-48
2021/06/12 04:17:32;;;;;;;9.45;4.35;;;;;;;19.33;64.75;101787.34;5072938;28;20080;-50
2021/06/12 04:20:00;;;;;;;7.03;4.05;;;;;;;19.30;64.67;101779.66;5071401;28;20146;-48
2021/06/12 04:22:28;;;;;;;8.23;4.80;;;;;;;19.30;64.71;101788.75;5072501;28;20071;-50
2021/06/12 04:24:55;;;;;;;10.23;4.65;;;;;;;19.31;65.02;101784.06;5072776;28;20792;-50
2021/06/12 04:27:23;;;;;;;9.55;4.82;;;;;;;19.26;65.09;101778.63;5071877;28;20049;-50
2021/06/12 04:29:51;;;;;;;8.30;4.90;;;;;;;19.20;65.27;101766.84;5073087;28;20041;-51
2021/06/12 04:32:19;;;;;;;8.40;5.07;;;;;;;19.16;65.41;101774.09;5072839;28;20076;-52
2021/06/12 04:34:46;;;;;;;6.70;4.35;;;;;;;19.18;65.42;101776.56;5072758;28;20090;-50
2021/06/12 04:37:14;;;;;;;9.63;5.40;;;;;;;19.19;65.44;101767.16;5072695;28;20086;-51
2021/06/12 04:39:42;;;;;;;9.02;5.15;;;;;;;19.19;65.43;101764.38;5072702;28;20094;-52
2021/06/12 04:42:10;;;;;;;8.60;4.63;;;;;;;19.22;65.41;101766.53;5072094;28;20052;-50
2021/06/12 04:44:38;;;;;;;9.70;4.97;;;;;;;19.22;65.44;101763.75;5072043;28;20057;-53
2021/06/12 04:47:05;;;;;;;8.55;4.97;;;;;;;19.22;65.31;101764.59;5074457;28;20098;-50
2021/06/12 04:49:33;;;;;;;8.52;4.75;;;;;;;19.24;65.32;101767.06;5076149;28;20110;-49
2021/06/12 04:52:01;;;;;;;10.63;5.28;;;;;;;19.24;65.60;101773.41;5076098;28;20068;-49
2021/06/12 04:54:28;;;;;;;11.10;5.25;;;;;;;19.22;65.68;101770.13;5075732;28;20053;-50
2021/06/12 04:56:56;;;;;;;12.15;6.30;;;;;;;19.20;65.75;101766.03;5075134;28;20076;-52
2021/06/12 04:59:23;;;;;;;12.30;6.55;;;;;;;19.12;66.21;101765.59;5075580;28;20384;-50
2021/06/12 05:01:51;;;;;;;12.63;6.65;;;;;;;19.10;66.33;101765.09;5075523;28;20045;-55
2021/06/12 05:04:19;;;;;;;10.05;5.70;;;;;;;19.08;66.48;101764.56;5075587;28;20051;-51
2021/06/12 05:06:47;;;;;;;10.25;6.60;;;;;;;19.08;66.62;101764.56;5078403;28;20044;-52
2021/06/12 05:09:14;;;;;;;11.77;6.28;;;;;;;19.08;66.68;101772.03;5078588;28;20052;-54
2021/06/12 05:11:42;;;;;;;15.95;7.13;;;;;;;19.06;66.70;101772.34;5075230;28;20072;-50
2021/06/12 05:14:10;;;;;;;11.40;6.82;;;;;;;18.98;67.25;101784.09;5063148;28;20037;-53
2021/06/12 05:16:39;;;;;;;13.00;6.97;;;;;;;18.97;67.26;101781.59;5055729;28;20098;-54
2021/06/12 05:19:07;;;;;;;10.75;7.00;;;;;;;18.90;67.53;101791.09;5058372;28;20064;-50
2021/06/12 05:21:37;;;;;;;12.63;7.00;;;;;;;18.87;67.67;101788.13;5074924;28;20510;-51
2021/06/12 05:24:05;;;;;;;14.02;7.90;;;;;;;18.86;67.85;101800.31;5062736;28;20071;-54
2021/06/12 05:26:33;;;;;;;12.10;8.00;;;;;;;18.81;68.12;101803.97;5074218;28;20068;-53
2021/06/12 05:29:01;;;;;;;13.63;8.52;;;;;;;18.74;68.28;101804.28;5074652;28;20052;-53
2021/06/12 05:31:28;;;;;;;15.82;8.55;;;;;;;18.74;68.31;101804.28;5075138;28;20072;-52
2021/06/12 05:33:56;;;;;;;14.60;8.02;;;;;;;18.77;68.36;101802.91;5074800;28;20060;-48
2021/06/12 05:36:24;;;;;;;14.18;8.93;;;;;;;18.78;68.22;101815.59;5074815;28;20491;-53
2021/06/12 05:38:51;;;;;;;13.82;8.23;;;;;;;18.78;68.39;101807.28;5074199;28;20067;-47
2021/06/12 05:41:19;;;;;;;11.68;7.30;;;;;;;18.81;68.39;101809.47;5074100;28;20104;-50
2021/06/12 05:43:47;;;;;;;16.88;9.15;;;;;;;18.84;68.26;101813.59;5074625;28;20044;-54
2021/06/12 05:46:15;;;;;;;16.10;8.73;;;;;;;18.85;68.45;101815.22;5074517;28;20075;-50
2021/06/12 05:48:42;;;;;;;16.38;8.93;;;;;;;18.82;68.31;101821.34;5074317;28;20394;-52
2021/06/12 05:51:10;;;;;;;14.52;8.80;;;;;;;18.82;68.54;101826.88;5074190;28;20514;-48
2021/06/12 05:53:38;;;;;;;13.80;9.57;;;;;;;18.77;68.64;101830.50;5074215;28;20094;-50
2021/06/12 05:56:05;;;;;;;14.45;10.30;;;;;;;18.75;68.73;101827.19;5074392;28;20076;-48
2021/06/12 05:58:34;;;;;;;13.75;9.35;;;;;;;18.76;68.85;101833.53;5073303;28;20040;-52
2021/06/12 06:01:02;;;;;;;12.50;8.55;;;;;;;18.76;68.86;101833.53;5074534;28;20028;-51
2021/06/12 06:03:29;;;;;;;11.90;8.15;;;;;;;18.74;68.95;101831.09;5073859;28;20041;-54
2021/06/12 06:05:57;;;;;;;14.73;9.63;;;;;;;18.74;68.96;101831.91;5074346;28;20052;-49
2021/06/12 06:08:25;;;;;;;16.13;9.73;;;;;;;18.74;69.14;101836.63;5073665;28;20070;-49
2021/06/12 06:10:52;;;;;;;16.80;10.38;;;;;;;18.73;69.14;101841.28;5074251;28;20029;-53
2021/06/12 06:13:20;;;;;;;18.17;10.93;;;;;;;18.74;69.12;101836.63;5073939;28;20491;-51
2021/06/12 06:15:52;;;;;;;17.13;9.82;;;;;;;18.77;68.92;101838.81;5073976;28;20150;-56
2021/06/12 06:18:20;;;;;;;13.38;8.63;;;;;;;18.85;68.84;101843.63;5073486;28;20075;-53
2021/06/12 06:20:48;;;;;;;15.77;9.95;;;;;;;18.86;68.74;101833.44;5073388;28;20049;-50
2021/06/12 06:23:15;;;;;;;16.77;9.98;;;;;;;18.87;68.87;101838.63;5073172;28;20041;-55
2021/06/12 06:25:43;;;;;;;13.70;9.23;;;;;;;18.93;68.55;101829.16;5073376;28;20070;-50
2021/06/12 06:28:11;;;;;;;17.52;11.73;;;;;;;18.96;68.72;101826.94;5072372;28;20453;-51
2021/06/12 06:30:39;;;;;;;16.05;9.48;;;;;;;18.97;68.60;101834.09;5073769;28;20079;-52
2021/06/12 06:33:07;;;;;;;17.70;12.15;;;;;;;18.93;68.94;101829.16;5073317;28;20083;-54
2021/06/12 06:35:35;;;;;;;19.13;11.32;;;;;;;18.99;68.86;101829.91;5072218;28;20063;-52
2021/06/12 06:38:03;;;;;;;22.23;12.50;;;;;;;18.99;68.84;101840.13;5072584;28;20429;-52
2021/06/12 06:40:30;;;;;;;16.70;11.90;;;;;;;19.04;68.79;101838.09;5072003;28;20106;-56
2021/06/12 06:42:58;;;;;;;19.25;10.88;;;;;;;19.04;68.86;101840.88;5071784;28;20110;-54
2021/06/12 06:45:26;;;;;;;18.13;13.10;;;;;;;19.02;68.99;101843.09;5073097;28;20072;-51
2021/06/12 06:47:54;;;;;;;19.55;13.65;;;;;;;19.02;69.06;101834.81;5072843;28;20450;-52
2021/06/12 06:50:21;;;;;;;21.25;12.68;;;;;;;19.04;68.93;101829.81;5073163;28;20044;-51
2021/06/12 06:52:49;;;;;;;19.15;14.13;;;;;;;19.07;68.81;101833.91;5072845;28;20047;-50
2021/06/12 06:55:17;;;;;;;19.85;14.23;;;;;;;18.98;69.22;101836.56;5073290;28;20044;-51
2021/06/12 06:57:45;;;;;;;17.58;13.38;;;;;;;18.86;69.41;101850.00;5072909;28;20094;-54
2021/06/12 07:00:13;;;;;;;20.77;14.68;;;;;;;18.73;69.98;101846.00;5073167;28;20933;-54
2021/06/12 07:02:41;;;;;;;20.42;13.45;;;;;;;18.75;70.36;101860.31;5072901;28;20132;-49
2021/06/12 07:05:09;;;;;;;20.00;12.80;;;;;;;18.83;70.38;101858.88;5070991;28;20086;-53
2021/06/12 07:07:37;;;;;;;18.38;13.40;;;;;;;18.89;69.45;101865.97;5072554;28;20048;-52
2021/06/12 07:10:05;;;;;;;19.02;12.80;;;;;;;18.84;69.61;101857.75;5072727;28;20549;-51
2021/06/12 07:12:32;;;;;;;19.65;12.98;;;;;;;18.76;69.64;101859.25;5072548;28;20086;-47
2021/06/12 07:15:00;;;;;;;20.17;12.50;;;;;;;18.83;69.84;101856.09;5072552;28;20049;-51
2021/06/12 07:17:28;;;;;;;19.35;12.77;;;;;;;18.87;69.68;101857.97;5072648;28;20383;-52
2021/06/12 07:20:05;;;;;;;15.77;11.50;;;;;;;18.96;69.37;101849.84;5072197;28;20045;-53
2021/06/12 07:22:33;;;;;;;20.63;13.07;;;;;;;18.98;68.90;101844.84;5072000;28;20040;-52
2021/06/12 07:25:01;;;;;;;17.17;11.77;;;;;;;19.07;68.91;101851.34;5072484;28;20079;-50
2021/06/12 07:27:28;;;;;;;16.52;11.30;;;;;;;19.14;68.61;101857.28;5072031;28;20114;-48
2021/06/12 07:29:56;;;;;;;17.17;11.55;;;;;;;19.18;67.92;101848.41;5072784;28;20053;-54
2021/06/12 07:32:24;;;;;;;18.35;12.10;;;;;;;19.08;68.13;101855.72;5072615;28;20053;-52
2021/06/12 07:34:51;;;;;;;16.73;10.90;;;;;;;19.05;68.46;101848.06;5044253;28;20506;-48
2021/06/12 07:37:22;;;;;;;17.02;11.18;;;;;;;19.12;68.23;101855.94;5072564;28;20093;-50
2021/06/12 07:39:50;;;;;;;16.30;10.90;;;;;;;19.16;68.10;101855.03;5072073;28;20067;-53
2021/06/12 07:42:18;;;;;;;17.73;10.80;;;;;;;19.23;67.37;101859.38;5072117;28;20450;-53
2021/06/12 07:44:45;;;;;;;15.00;10.30;;;;;;;19.23;66.80;101864.91;5072338;28;20036;-53
2021/06/12 07:47:17;;;;;;;17.33;9.98;;;;;;;19.27;66.68;101868.69;5071922;28;20056;-52
2021/06/12 07:49:45;;;;;;;15.07;10.18;;;;;;;19.27;66.61;101871.47;5071543;28;20105;-53
2021/06/12 07:52:12;;;;;;;12.90;8.90;;;;;;;19.34;66.39;101877.44;5072009;28;20036;-52
2021/06/12 07:54:40;;;;;;;17.05;10.57;;;;;;;19.36;66.25;101880.69;5072407;28;20045;-51
2021/06/12 07:57:08;;;;;;;14.90;9.95;;;;;;;19.33;64.94;101887.63;5072185;28;20376;-52
2021/06/12 07:59:35;;;;;;;15.75;7.60;;;;;;;19.26;63.43;101878.09;5072610;28;20215;-54
2021/06/12 08:02:03;;;;;;;17.75;7.72;;;;;;;19.22;62.65;101875.13;5044452;28;20519;-49
2021/06/12 08:04:31;;;;;;;15.55;7.88;;;;;;;19.23;62.63;101887.00;5071997;28;20068;-54
2021/06/12 08:06:58;;;;;;;11.95;7.13;;;;;;;19.23;61.81;101882.28;5072238;28;20037;-50
2021/06/12 08:09:26;;;;;;;17.15;7.07;;;;;;;19.23;61.29;101879.53;5072530;28;20056;-50
2021/06/12 08:11:54;;;;;;;12.43;6.70;;;;;;;19.30;61.15;101877.19;5071984;28;20123;-51
2021/06/12 08:14:22;;;;;;;13.65;6.60;;;;;;;19.32;60.77;101880.47;5072157;28;20047;-51
2021/06/12 08:16:50;;;;;;;12.32;6.35;;;;;;;19.37;61.00;101883.16;5072237;28;20068;-53
2021/06/12 08:19:17;;;;;;;14.05;6.05;;;;;;;19.41;60.57;101882.53;5071546;28;20047;-52
2021/06/12 08:21:46;;;;;;;11.90;6.00;;;;;;;19.48;60.88;101877.44;5074474;28;20102;-54
2021/06/12 08:24:14;;;;;;;11.13;6.00;;;;;;;19.51;60.30;101887.94;5075807;28;20045;-53
2021/06/12 08:26:45;;;;;;;12.57;6.68;;;;;;;19.46;59.80;101891.59;5076125;28;20041;-50
2021/06/12 08:29:12;;;;;;;13.60;6.13;;;;;;;19.42;59.45;101887.78;5075960;28;20079;-50
2021/06/12 08:31:40;;;;;;;13.13;5.80;;;;;;;19.43;59.49;101907.94;5076072;28;20076;-50
2021/06/12 08:34:08;;;;;;;9.35;5.15;;;;;;;19.37;58.32;101909.97;5075375;28;20495;-53
2021/06/12 08:36:35;;;;;;;12.48;5.50;;;;;;;19.35;58.14;101913.03;5075680;28;20087;-52
2021/06/12 08:39:04;;;;;;;13.05;5.40;;;;;;;19.31;58.02;101917.53;5075830;28;20411;-50
2021/06/12 08:41:32;;;;;;;18.23;5.28;;;;;;;19.30;58.47;101923.38;5075719;28;20045;-50
2021/06/12 08:44:01;;;;;;;9.52;4.45;;;;;;;19.34;55.85;101916.13;5075829;28;20072;-45
2021/06/12 08:46:29;;;;;;;9.25;4.53;;;;;;;19.41;56.37;101916.56;5074176;28;20049;-49
2021/06/12 08:48:57;;;;;;;8.75;4.40;;;;;;;19.42;54.83;101918.19;5075638;28;20044;-48
2021/06/12 08:51:25;;;;;;;15.77;5.03;;;;;;;19.42;53.64;101925.66;5075428;28;20048;-58
2021/06/12 08:53:53;;;;;;;11.57;4.50;;;;;;;19.40;54.65;101930.66;5076035;28;20095;-49
2021/06/12 08:56:21;;;;;;;9.43;4.03;;;;;;;19.38;55.01;101933.72;5077741;28;20309;-49
2021/06/12 08:58:49;;;;;;;12.15;4.30;;;;;;;19.39;55.22;101927.09;5080288;28;20523;-52
2021/06/12 09:01:20;;;;;;;9.77;4.53;;;;;;;19.41;55.48;101935.91;5081738;28;20064;-49
2021/06/12 09:03:49;;;;;;;10.23;4.50;;;;;;;19.41;54.95;101938.66;5082137;28;20056;-50
2021/06/12 09:06:21;;;;;;;11.02;4.25;;;;;;;19.41;54.04;101949.72;5077136;28;20068;-53
2021/06/12 09:08:58;;;;;;;10.55;4.15;;;;;;;19.41;53.69;101948.88;5075778;28;20380;-49
2021/06/12 09:11:26;;;;;;;11.73;4.35;;;;;;;19.38;53.07;101944.78;5075275;28;20048;-51
2021/06/12 09:14:01;;;;;;;11.52;4.20;;;;;;;19.43;53.29;101944.69;5074345;28;20102;-50
2021/06/12 09:16:39;;;;;;;8.50;4.03;;;;;;;19.51;52.79;101946.78;5075231;28;20040;-49
2021/06/12 09:19:21;;;;;;;9.55;4.03;;;;;;;19.51;52.23;101935.72;5074057;28;20044;-49
2021/06/12 09:21:52;;;;;;;10.48;3.88;;;;;;;19.52;51.83;101944.84;5074437;28;20139;-51
2021/06/12 09:24:26;;;;;;;13.75;3.92;;;;;;;19.52;51.92;101945.66;5073647;28;20517;-51
2021/06/12 09:26:58;;;;;;;8.25;3.95;;;;;;;19.54;51.85;101937.88;5074903;28;20040;-51
2021/06/12 09:29:33;;;;;;;10.07;4.15;;;;;;;19.57;51.99;101948.34;5074610;28;20048;-52
2021/06/12 09:32:01;;;;;;;8.07;3.75;;;;;;;19.62;51.59;101946.63;5072868;28;20048;-52
2021/06/12 09:34:33;;;;;;;10.20;3.92;;;;;;;19.63;51.50;101946.31;5074631;28;20056;-51
2021/06/12 09:37:13;;;;;;;9.13;4.00;;;;;;;19.65;51.72;101944.09;5074829;28;20044;-53
2021/06/12 09:40:03;;;;;;;17.15;4.97;;;;;;;19.71;51.54;101942.06;5074390;28;20040;-52
2021/06/12 09:42:43;;;;;;;9.50;4.45;;;;;;;19.79;51.31;101950.50;5074738;28;20572;-52
2021/06/12 09:45:16;;;;;;;12.00;3.90;;;;;;;19.88;50.99;101950.63;5047389;28;20063;-52
2021/06/12 09:47:45;;;;;;;10.38;3.90;;;;;;;19.97;47.44;101957.09;5074042;28;20049;-50
2021/06/12 09:50:14;;;;;;;8.50;3.80;;;;;;;20.02;47.61;101964.50;5074229;28;20040;-49
2021/06/12 09:52:46;;;;;;;10.18;3.50;;;;;;;20.00;46.67;101962.00;5074643;28;20044;-52
2021/06/12 09:55:29;;;;;;;10.13;3.53;;;;;;;19.93;47.14;101961.59;5074418;28;20399;-51
2021/06/12 09:58:01;;;;;;;10.02;3.65;;;;;;;19.95;46.83;101973.19;5074247;28;20048;-50
2021/06/12 10:00:38;;;;;;;9.60;3.67;;;;;;;19.93;47.19;101960.78;5074201;28;20053;-51
2021/06/12 10:03:31;;;;;;;6.85;3.40;;;;;;;20.03;47.42;101971.66;5074661;28;20041;-51
2021/06/12 10:06:20;;;;;;;9.75;3.42;;;;;;;20.13;46.94;101970.66;5074964;28;20503;-52
2021/06/12 10:08:49;;;;;;;13.40;3.85;;;;;;;20.17;47.12;101961.44;5073403;28;20059;-50
2021/06/12 10:11:24;;;;;;;12.85;3.70;;;;;;;20.22;48.07;101966.06;5074211;28;20044;-47
2021/06/12 10:13:52;;;;;;;12.43;3.55;;;;;;;20.25;47.72;101967.38;5072449;28;20090;-52
2021/06/12 10:16:20;;;;;;;8.70;3.53;;;;;;;20.23;47.01;101970.47;5073953;28;20048;-50
2021/06/12 10:18:51;;;;;;;10.75;4.03;;;;;;;20.18;46.92;101976.13;5072702;28;20091;-49
2021/06/12 10:21:19;;;;;;;11.30;4.07;;;;;;;20.20;46.84;101960.00;5074337;28;20083;-47
2021/06/12 10:23:48;;;;;;;10.65;3.97;;;;;;;20.27;46.65;101974.25;5073456;28;20072;-49
2021/06/12 10:26:18;;;;;;;16.85;4.07;;;;;;;20.33;46.97;101969.47;5074074;28;20479;-49
2021/06/12 10:28:46;;;;;;;13.43;3.90;;;;;;;20.41;46.04;101994.47;5073505;28;20403;-50
2021/06/12 10:31:16;;;;;;;13.15;4.13;;;;;;;20.37;46.02;101985.16;5074127;28;20044;-47
2021/06/12 10:33:46;;;;;;;22.30;4.95;;;;;;;20.35;46.48;101981.88;5073694;28;20490;-49
2021/06/12 10:36:17;;;;;;;10.23;4.00;;;;;;;20.35;46.92;101979.09;5073501;28;20057;-49
2021/06/12 10:38:46;;;;;;;10.73;4.18;;;;;;;20.44;46.29;101984.72;5074460;28;20053;-47
2021/06/12 10:41:23;;;;;;;12.45;5.10;;;;;;;20.42;46.41;101982.28;5074048;28;20051;-49
2021/06/12 10:43:54;;;;;;;14.35;4.38;;;;;;;20.42;46.53;101979.50;5073832;28;20490;-51
2021/06/12 10:46:26;;;;;;;12.15;4.18;;;;;;;20.45;47.33;101974.50;5074812;28;20533;-50
2021/06/12 10:48:59;;;;;;;11.40;4.25;;;;;;;20.51;46.81;101987.09;5075314;28;20040;-50
2021/06/12 10:51:27;;;;;;;10.00;4.00;;;;;;;20.46;46.82;101981.66;5075787;28;20059;-51
2021/06/12 10:56:39;;;;;;;10.05;4.18;;;;;;;20.44;47.08;101995.81;5075812;28;20522;-51
2021/06/12 10:59:08;;;;;;;14.70;5.28;;;;;;;20.39;46.83;102001.44;5074882;28;20064;-52
2021/06/12 11:01:36;;;;;;;11.27;4.65;;;;;;;20.39;47.26;102012.50;5075609;28;20449;-49
2021/06/12 11:04:17;;;;;;;9.65;4.07;;;;;;;20.35;47.45;101990.19;5074956;28;20068;-49
2021/06/12 11:06:52;;;;;;;14.98;5.28;;;;;;;20.29;47.19;102005.22;5074463;28;20052;-48
2021/06/12 11:09:20;;;;;;;12.57;4.57;;;;;;;20.21;47.60;102003.16;5074913;28;20056;-51
2021/06/12 11:11:56;;;;;;;12.75;4.20;;;;;;;20.13;46.86;102004.69;5073581;28;20091;-51
2021/06/12 11:14:25;;;;;;;11.35;3.88;;;;;;;20.07;47.29;101988.47;5074602;28;20040;-52
2021/06/12 11:17:06;;;;;;;9.80;3.83;;;;;;;20.16;46.99;101994.97;5074840;28;20048;-50
2021/06/12 11:19:34;;;;;;;13.85;4.50;;;;;;;20.18;46.50;101989.94;5075057;28;20049;-51
2021/06/12 11:22:33;;;;;;;12.90;4.03;;;;;;;20.19;46.15;101995.16;5073353;28;20084;-50
2021/06/12 11:25:10;;;;;;;13.48;4.40;;;;;;;20.18;46.20;101995.47;5051047;28;20094;-49
2021/06/12 11:27:49;;;;;;;11.77;4.15;;;;;;;20.17;46.51;102002.13;5072221;28;20071;-50
2021/06/12 11:32:57;;;;;;;13.50;4.75;;;;;;;20.40;45.38;101992.84;5072838;28;20679;-50
2021/06/12 11:35:42;;;;;;;12.85;5.00;;;;;;;20.42;44.69;102001.66;5071482;28;20143;-51
2021/06/12 11:38:32;;;;;;;14.57;4.07;;;;;;;20.37;45.47;101987.94;5072744;28;20078;-49